sensor_id;sensor_type;location;lat;lon;timestamp;P1;durP1;ratioP1;P2;durP2;ratioP2
23826;SDS011;12094;50.822;4.376;2022-11-20T00:00:31;88.90;;;37.95;;
23826;SDS011;12094;50.822;4.376;2022-11-20T00:02:58;88.97;;;39.17;;
23826;SDS011;12094;50.822;4.376;2022-11-20T00:05:34;83.95;;;38.70;;
23826;SDS011;12094;50.822;4.376;2022-11-20T00:08:02;89.88;;;38.72;;
23826;SDS011;12094;50.822;4.376;2022-11-20T00:10:30;88.65;;;38.53;;
23826;SDS011;12094;50.822;4.376;2022-11-20T00:12:57;89.85;;;39.35;;
23826;SDS011;12094;50.822;4.376;2022-11-20T00:15:28;98.30;;;38.72;;
23826;SDS011;12094;50.822;4.376;2022-11-20T00:20:26;90.72;;;37.80;;
23826;SDS011;12094;50.822;4.376;2022-11-20T00:22:53;94.63;;;39.25;;
23826;SDS011;12094;50.822;4.376;2022-11-20T00:25:24;82.45;;;35.78;;
23826;SDS011;12094;50.822;4.376;2022-11-20T00:27:51;88.95;;;40.95;;
23826;SDS011;12094;50.822;4.376;2022-11-20T00:30:19;84.47;;;38.47;;
23826;SDS011;12094;50.822;4.376;2022-11-20T00:32:46;89.30;;;39.38;;
23826;SDS011;12094;50.822;4.376;2022-11-20T00:35:19;84.05;;;37.80;;
23826;SDS011;12094;50.822;4.376;2022-11-20T00:37:48;83.57;;;39.47;;
23826;SDS011;12094;50.822;4.376;2022-11-20T00:40:15;85.45;;;38.75;;
23826;SDS011;12094;50.822;4.376;2022-11-20T00:42:43;82.75;;;38.40;;
23826;SDS011;12094;50.822;4.376;2022-11-20T00:45:11;89.80;;;38.83;;
23826;SDS011;12094;50.822;4.376;2022-11-20T00:47:42;88.43;;;39.70;;
23826;SDS011;12094;50.822;4.376;2022-11-20T00:50:10;85.45;;;39.63;;
23826;SDS011;12094;50.822;4.376;2022-11-20T00:52:44;95.63;;;40.60;;
23826;SDS011;12094;50.822;4.376;2022-11-20T00:55:12;85.28;;;39.08;;
23826;SDS011;12094;50.822;4.376;2022-11-20T00:57:43;80.15;;;38.22;;
23826;SDS011;12094;50.822;4.376;2022-11-20T01:00:14;82.22;;;38.20;;
23826;SDS011;12094;50.822;4.376;2022-11-20T01:02:41;76.85;;;37.50;;
23826;SDS011;12094;50.822;4.376;2022-11-20T01:05:09;74.00;;;35.88;;
23826;SDS011;12094;50.822;4.376;2022-11-20T01:07:38;88.22;;;39.20;;
23826;SDS011;12094;50.822;4.376;2022-11-20T01:10:07;80.57;;;37.58;;
23826;SDS011;12094;50.822;4.376;2022-11-20T01:12:34;86.63;;;39.45;;
23826;SDS011;12094;50.822;4.376;2022-11-20T01:15:01;78.90;;;38.72;;
23826;SDS011;12094;50.822;4.376;2022-11-20T01:17:29;73.35;;;38.53;;
23826;SDS011;12094;50.822;4.376;2022-11-20T01:19:59;83.93;;;37.25;;
23826;SDS011;12094;50.822;4.376;2022-11-20T01:22:28;79.05;;;39.35;;
23826;SDS011;12094;50.822;4.376;2022-11-20T01:24:56;78.30;;;36.97;;
23826;SDS011;12094;50.822;4.376;2022-11-20T01:27:27;78.10;;;37.40;;
23826;SDS011;12094;50.822;4.376;2022-11-20T01:29:55;71.95;;;36.03;;
23826;SDS011;12094;50.822;4.376;2022-11-20T01:32:27;74.72;;;36.67;;
23826;SDS011;12094;50.822;4.376;2022-11-20T01:34:55;72.45;;;36.58;;
23826;SDS011;12094;50.822;4.376;2022-11-20T01:37:22;78.00;;;37.58;;
23826;SDS011;12094;50.822;4.376;2022-11-20T01:39:49;79.43;;;37.83;;
23826;SDS011;12094;50.822;4.376;2022-11-20T01:42:17;78.00;;;37.33;;
23826;SDS011;12094;50.822;4.376;2022-11-20T01:45:42;79.30;;;37.58;;
23826;SDS011;12094;50.822;4.376;2022-11-20T01:48:09;75.38;;;37.38;;
23826;SDS011;12094;50.822;4.376;2022-11-20T01:50:40;75.53;;;37.63;;
23826;SDS011;12094;50.822;4.376;2022-11-20T01:53:10;81.07;;;38.35;;
23826;SDS011;12094;50.822;4.376;2022-11-20T01:55:49;81.55;;;38.83;;
23826;SDS011;12094;50.822;4.376;2022-11-20T01:58:23;80.50;;;37.58;;
23826;SDS011;12094;50.822;4.376;2022-11-20T02:01:01;77.53;;;37.55;;
23826;SDS011;12094;50.822;4.376;2022-11-20T02:03:31;82.93;;;37.22;;
23826;SDS011;12094;50.822;4.376;2022-11-20T02:06:12;85.55;;;38.80;;
23826;SDS011;12094;50.822;4.376;2022-11-20T02:08:51;76.85;;;36.78;;
23826;SDS011;12094;50.822;4.376;2022-11-20T02:11:20;82.10;;;38.83;;
23826;SDS011;12094;50.822;4.376;2022-11-20T02:13:51;87.63;;;38.15;;
23826;SDS011;12094;50.822;4.376;2022-11-20T02:16:23;82.38;;;36.95;;
23826;SDS011;12094;50.822;4.376;2022-11-20T02:18:57;75.93;;;36.83;;
23826;SDS011;12094;50.822;4.376;2022-11-20T02:24:27;76.07;;;35.42;;
23826;SDS011;12094;50.822;4.376;2022-11-20T02:27:04;73.53;;;34.40;;
23826;SDS011;12094;50.822;4.376;2022-11-20T02:32:21;77.60;;;35.20;;
23826;SDS011;12094;50.822;4.376;2022-11-20T02:34:53;84.90;;;36.45;;
23826;SDS011;12094;50.822;4.376;2022-11-20T02:37:26;86.78;;;36.15;;
23826;SDS011;12094;50.822;4.376;2022-11-20T02:40:00;79.70;;;34.50;;
23826;SDS011;12094;50.822;4.376;2022-11-20T02:42:27;85.05;;;34.00;;
23826;SDS011;12094;50.822;4.376;2022-11-20T02:44:54;72.50;;;33.00;;
23826;SDS011;12094;50.822;4.376;2022-11-20T02:47:24;79.10;;;32.72;;
23826;SDS011;12094;50.822;4.376;2022-11-20T02:55:21;67.50;;;28.88;;
23826;SDS011;12094;50.822;4.376;2022-11-20T03:03:14;63.88;;;27.90;;
23826;SDS011;12094;50.822;4.376;2022-11-20T03:05:44;65.00;;;28.48;;
23826;SDS011;12094;50.822;4.376;2022-11-20T03:08:11;65.85;;;28.83;;
23826;SDS011;12094;50.822;4.376;2022-11-20T03:10:41;69.38;;;29.13;;
23826;SDS011;12094;50.822;4.376;2022-11-20T03:13:08;63.90;;;28.77;;
23826;SDS011;12094;50.822;4.376;2022-11-20T03:15:36;69.50;;;28.98;;
23826;SDS011;12094;50.822;4.376;2022-11-20T03:18:04;64.70;;;28.58;;
23826;SDS011;12094;50.822;4.376;2022-11-20T03:20:33;75.93;;;30.48;;
23826;SDS011;12094;50.822;4.376;2022-11-20T03:23:04;73.43;;;28.58;;
23826;SDS011;12094;50.822;4.376;2022-11-20T03:25:31;61.30;;;27.58;;
23826;SDS011;12094;50.822;4.376;2022-11-20T03:28:01;65.53;;;28.58;;
23826;SDS011;12094;50.822;4.376;2022-11-20T03:30:29;62.30;;;27.80;;
23826;SDS011;12094;50.822;4.376;2022-11-20T03:32:57;64.72;;;28.50;;
23826;SDS011;12094;50.822;4.376;2022-11-20T03:35:24;60.67;;;29.13;;
23826;SDS011;12094;50.822;4.376;2022-11-20T03:37:54;68.72;;;29.88;;
23826;SDS011;12094;50.822;4.376;2022-11-20T03:40:22;65.28;;;28.75;;
23826;SDS011;12094;50.822;4.376;2022-11-20T03:42:50;66.47;;;28.50;;
23826;SDS011;12094;50.822;4.376;2022-11-20T03:45:22;65.38;;;29.27;;
23826;SDS011;12094;50.822;4.376;2022-11-20T03:47:51;61.88;;;27.92;;
23826;SDS011;12094;50.822;4.376;2022-11-20T03:50:22;71.35;;;30.23;;
23826;SDS011;12094;50.822;4.376;2022-11-20T03:52:50;67.70;;;29.75;;
23826;SDS011;12094;50.822;4.376;2022-11-20T03:55:18;67.43;;;29.73;;
23826;SDS011;12094;50.822;4.376;2022-11-20T03:57:47;71.63;;;30.10;;
23826;SDS011;12094;50.822;4.376;2022-11-20T04:00:16;70.57;;;31.05;;
23826;SDS011;12094;50.822;4.376;2022-11-20T04:02:44;65.45;;;29.17;;
23826;SDS011;12094;50.822;4.376;2022-11-20T04:05:13;66.78;;;29.70;;
23826;SDS011;12094;50.822;4.376;2022-11-20T04:07:48;66.00;;;28.63;;
23826;SDS011;12094;50.822;4.376;2022-11-20T04:15:40;71.35;;;30.60;;
23826;SDS011;12094;50.822;4.376;2022-11-20T04:18:08;70.45;;;30.10;;
23826;SDS011;12094;50.822;4.376;2022-11-20T04:20:37;72.07;;;28.98;;
23826;SDS011;12094;50.822;4.376;2022-11-20T04:23:07;76.05;;;31.92;;
23826;SDS011;12094;50.822;4.376;2022-11-20T04:25:33;69.78;;;30.00;;
23826;SDS011;12094;50.822;4.376;2022-11-20T04:30:32;71.85;;;29.85;;
23826;SDS011;12094;50.822;4.376;2022-11-20T04:33:00;75.97;;;30.88;;
23826;SDS011;12094;50.822;4.376;2022-11-20T04:35:29;82.22;;;31.90;;
23826;SDS011;12094;50.822;4.376;2022-11-20T04:38:00;80.00;;;32.33;;
23826;SDS011;12094;50.822;4.376;2022-11-20T04:40:38;73.07;;;31.02;;
23826;SDS011;12094;50.822;4.376;2022-11-20T04:43:19;87.18;;;33.55;;
23826;SDS011;12094;50.822;4.376;2022-11-20T04:48:20;74.00;;;30.52;;
23826;SDS011;12094;50.822;4.376;2022-11-20T04:50:50;81.93;;;31.27;;
23826;SDS011;12094;50.822;4.376;2022-11-20T04:53:23;86.68;;;33.47;;
23826;SDS011;12094;50.822;4.376;2022-11-20T04:55:58;87.60;;;33.55;;
23826;SDS011;12094;50.822;4.376;2022-11-20T04:58:28;90.20;;;33.33;;
23826;SDS011;12094;50.822;4.376;2022-11-20T05:01:02;90.63;;;33.67;;
23826;SDS011;12094;50.822;4.376;2022-11-20T05:03:34;96.38;;;34.78;;
23826;SDS011;12094;50.822;4.376;2022-11-20T05:08:42;99.65;;;36.90;;
23826;SDS011;12094;50.822;4.376;2022-11-20T05:11:15;97.63;;;34.95;;
23826;SDS011;12094;50.822;4.376;2022-11-20T05:13:50;91.93;;;34.78;;
23826;SDS011;12094;50.822;4.376;2022-11-20T05:16:22;100.27;;;34.40;;
23826;SDS011;12094;50.822;4.376;2022-11-20T05:26:16;93.68;;;33.22;;
23826;SDS011;12094;50.822;4.376;2022-11-20T05:28:55;108.63;;;38.90;;
23826;SDS011;12094;50.822;4.376;2022-11-20T05:31:27;86.40;;;32.88;;
23826;SDS011;12094;50.822;4.376;2022-11-20T05:33:54;99.93;;;36.58;;
23826;SDS011;12094;50.822;4.376;2022-11-20T05:36:27;101.55;;;35.97;;
23826;SDS011;12094;50.822;4.376;2022-11-20T05:41:29;97.22;;;35.00;;
23826;SDS011;12094;50.822;4.376;2022-11-20T05:53:55;94.47;;;33.50;;
23826;SDS011;12094;50.822;4.376;2022-11-20T05:56:26;90.50;;;31.75;;
23826;SDS011;12094;50.822;4.376;2022-11-20T05:58:55;104.32;;;34.58;;
23826;SDS011;12094;50.822;4.376;2022-11-20T06:01:25;96.35;;;32.58;;
23826;SDS011;12094;50.822;4.376;2022-11-20T06:03:53;97.43;;;35.03;;
23826;SDS011;12094;50.822;4.376;2022-11-20T06:06:21;98.35;;;33.45;;
23826;SDS011;12094;50.822;4.376;2022-11-20T06:08:48;107.13;;;35.75;;
23826;SDS011;12094;50.822;4.376;2022-11-20T06:11:16;105.97;;;32.28;;
23826;SDS011;12094;50.822;4.376;2022-11-20T06:13:46;117.50;;;37.00;;
23826;SDS011;12094;50.822;4.376;2022-11-20T06:16:16;107.78;;;34.75;;
23826;SDS011;12094;50.822;4.376;2022-11-20T06:21:23;107.75;;;34.80;;
23826;SDS011;12094;50.822;4.376;2022-11-20T06:23:51;115.65;;;35.42;;
23826;SDS011;12094;50.822;4.376;2022-11-20T06:26:23;102.28;;;33.22;;
23826;SDS011;12094;50.822;4.376;2022-11-20T06:31:26;98.50;;;34.60;;
23826;SDS011;12094;50.822;4.376;2022-11-20T06:33:56;108.45;;;33.97;;
23826;SDS011;12094;50.822;4.376;2022-11-20T06:36:28;107.97;;;34.53;;
23826;SDS011;12094;50.822;4.376;2022-11-20T06:39:07;104.53;;;33.72;;
23826;SDS011;12094;50.822;4.376;2022-11-20T06:41:37;90.60;;;29.30;;
23826;SDS011;12094;50.822;4.376;2022-11-20T06:44:07;110.03;;;32.83;;
23826;SDS011;12094;50.822;4.376;2022-11-20T06:46:34;109.32;;;34.97;;
23826;SDS011;12094;50.822;4.376;2022-11-20T06:49:06;113.82;;;35.50;;
23826;SDS011;12094;50.822;4.376;2022-11-20T06:51:36;111.77;;;34.63;;
23826;SDS011;12094;50.822;4.376;2022-11-20T06:54:12;107.75;;;34.95;;
23826;SDS011;12094;50.822;4.376;2022-11-20T06:56:40;99.43;;;33.60;;
23826;SDS011;12094;50.822;4.376;2022-11-20T06:59:10;104.20;;;35.97;;
23826;SDS011;12094;50.822;4.376;2022-11-20T07:01:41;104.60;;;33.95;;
23826;SDS011;12094;50.822;4.376;2022-11-20T07:04:09;100.45;;;34.55;;
23826;SDS011;12094;50.822;4.376;2022-11-20T07:06:36;91.70;;;32.28;;
23826;SDS011;12094;50.822;4.376;2022-11-20T07:09:04;95.40;;;29.85;;
23826;SDS011;12094;50.822;4.376;2022-11-20T07:11:42;99.93;;;33.80;;
23826;SDS011;12094;50.822;4.376;2022-11-20T07:14:10;103.50;;;33.53;;
23826;SDS011;12094;50.822;4.376;2022-11-20T07:16:37;99.47;;;33.92;;
23826;SDS011;12094;50.822;4.376;2022-11-20T07:19:06;85.38;;;31.20;;
23826;SDS011;12094;50.822;4.376;2022-11-20T07:21:35;90.68;;;31.23;;
23826;SDS011;12094;50.822;4.376;2022-11-20T07:24:16;91.07;;;32.90;;
23826;SDS011;12094;50.822;4.376;2022-11-20T07:26:46;92.82;;;32.83;;
23826;SDS011;12094;50.822;4.376;2022-11-20T07:29:18;92.93;;;32.47;;
23826;SDS011;12094;50.822;4.376;2022-11-20T07:31:49;83.40;;;32.20;;
23826;SDS011;12094;50.822;4.376;2022-11-20T07:37:13;82.65;;;29.73;;
23826;SDS011;12094;50.822;4.376;2022-11-20T07:39:42;90.85;;;31.63;;
23826;SDS011;12094;50.822;4.376;2022-11-20T07:42:09;92.72;;;31.50;;
23826;SDS011;12094;50.822;4.376;2022-11-20T07:44:41;92.68;;;32.38;;
23826;SDS011;12094;50.822;4.376;2022-11-20T07:47:12;96.88;;;33.85;;
23826;SDS011;12094;50.822;4.376;2022-11-20T07:49:42;104.72;;;31.90;;
23826;SDS011;12094;50.822;4.376;2022-11-20T07:52:09;97.47;;;32.13;;
23826;SDS011;12094;50.822;4.376;2022-11-20T07:54:37;90.40;;;33.58;;
23826;SDS011;12094;50.822;4.376;2022-11-20T07:57:07;104.72;;;33.85;;
23826;SDS011;12094;50.822;4.376;2022-11-20T07:59:34;97.25;;;31.55;;
23826;SDS011;12094;50.822;4.376;2022-11-20T08:02:02;94.18;;;30.55;;
23826;SDS011;12094;50.822;4.376;2022-11-20T08:04:29;95.50;;;30.05;;
23826;SDS011;12094;50.822;4.376;2022-11-20T08:06:57;97.70;;;31.35;;
23826;SDS011;12094;50.822;4.376;2022-11-20T08:09:24;95.50;;;31.55;;
23826;SDS011;12094;50.822;4.376;2022-11-20T08:11:53;87.05;;;30.63;;
23826;SDS011;12094;50.822;4.376;2022-11-20T08:14:42;92.57;;;29.67;;
23826;SDS011;12094;50.822;4.376;2022-11-20T08:17:09;92.75;;;30.40;;
23826;SDS011;12094;50.822;4.376;2022-11-20T08:19:39;89.80;;;31.25;;
23826;SDS011;12094;50.822;4.376;2022-11-20T08:22:07;98.80;;;31.83;;
23826;SDS011;12094;50.822;4.376;2022-11-20T08:24:35;89.90;;;30.50;;
23826;SDS011;12094;50.822;4.376;2022-11-20T08:27:03;91.07;;;31.60;;
23826;SDS011;12094;50.822;4.376;2022-11-20T08:29:32;88.18;;;30.35;;
23826;SDS011;12094;50.822;4.376;2022-11-20T08:32:02;91.70;;;30.73;;
23826;SDS011;12094;50.822;4.376;2022-11-20T08:34:30;90.50;;;30.85;;
23826;SDS011;12094;50.822;4.376;2022-11-20T08:36:57;72.88;;;27.40;;
23826;SDS011;12094;50.822;4.376;2022-11-20T08:39:27;87.13;;;29.90;;
23826;SDS011;12094;50.822;4.376;2022-11-20T08:41:54;73.32;;;23.88;;
23826;SDS011;12094;50.822;4.376;2022-11-20T08:44:24;70.13;;;25.08;;
23826;SDS011;12094;50.822;4.376;2022-11-20T08:46:53;70.50;;;25.17;;
23826;SDS011;12094;50.822;4.376;2022-11-20T08:49:22;88.45;;;28.15;;
23826;SDS011;12094;50.822;4.376;2022-11-20T08:51:50;82.78;;;26.85;;
23826;SDS011;12094;50.822;4.376;2022-11-20T08:54:21;78.82;;;28.23;;
23826;SDS011;12094;50.822;4.376;2022-11-20T08:56:51;80.70;;;27.85;;
23826;SDS011;12094;50.822;4.376;2022-11-20T08:59:32;73.85;;;27.85;;
23826;SDS011;12094;50.822;4.376;2022-11-20T09:02:20;79.40;;;28.13;;
23826;SDS011;12094;50.822;4.376;2022-11-20T09:04:48;78.10;;;27.35;;
23826;SDS011;12094;50.822;4.376;2022-11-20T09:07:15;74.80;;;26.58;;
23826;SDS011;12094;50.822;4.376;2022-11-20T09:09:42;78.43;;;27.15;;
23826;SDS011;12094;50.822;4.376;2022-11-20T09:12:09;77.30;;;27.23;;
23826;SDS011;12094;50.822;4.376;2022-11-20T09:14:36;73.95;;;27.45;;
23826;SDS011;12094;50.822;4.376;2022-11-20T09:17:03;69.55;;;26.65;;
23826;SDS011;12094;50.822;4.376;2022-11-20T09:19:30;73.63;;;26.88;;
23826;SDS011;12094;50.822;4.376;2022-11-20T09:22:01;74.25;;;28.17;;
23826;SDS011;12094;50.822;4.376;2022-11-20T09:24:30;69.25;;;26.35;;
23826;SDS011;12094;50.822;4.376;2022-11-20T09:26:58;61.55;;;24.85;;
23826;SDS011;12094;50.822;4.376;2022-11-20T09:29:27;64.07;;;25.27;;
23826;SDS011;12094;50.822;4.376;2022-11-20T09:31:54;58.13;;;24.83;;
23826;SDS011;12094;50.822;4.376;2022-11-20T09:34:22;61.30;;;25.20;;
23826;SDS011;12094;50.822;4.376;2022-11-20T09:36:52;59.25;;;24.70;;
23826;SDS011;12094;50.822;4.376;2022-11-20T09:48:10;46.35;;;21.63;;
23826;SDS011;12094;50.822;4.376;2022-11-20T09:54:05;48.13;;;20.85;;
23826;SDS011;12094;50.822;4.376;2022-11-20T09:56:55;41.55;;;17.23;;
23826;SDS011;12094;50.822;4.376;2022-11-20T09:59:41;38.03;;;16.33;;
23826;SDS011;12094;50.822;4.376;2022-11-20T10:02:47;42.13;;;17.65;;
23826;SDS011;12094;50.822;4.376;2022-11-20T10:05:48;40.33;;;15.75;;
23826;SDS011;12094;50.822;4.376;2022-11-20T10:08:21;34.30;;;14.13;;
23826;SDS011;12094;50.822;4.376;2022-11-20T10:10:50;27.75;;;12.85;;
23826;SDS011;12094;50.822;4.376;2022-11-20T10:13:35;26.42;;;12.70;;
23826;SDS011;12094;50.822;4.376;2022-11-20T10:25:22;21.52;;;9.27;;
23826;SDS011;12094;50.822;4.376;2022-11-20T10:34:26;22.08;;;9.63;;
23826;SDS011;12094;50.822;4.376;2022-11-20T10:37:09;14.73;;;8.70;;
23826;SDS011;12094;50.822;4.376;2022-11-20T10:42:59;16.73;;;7.00;;
23826;SDS011;12094;50.822;4.376;2022-11-20T10:45:43;18.50;;;7.80;;
23826;SDS011;12094;50.822;4.376;2022-11-20T10:48:21;17.40;;;7.40;;
23826;SDS011;12094;50.822;4.376;2022-11-20T10:53:45;17.10;;;6.13;;
23826;SDS011;12094;50.822;4.376;2022-11-20T10:56:50;12.45;;;5.75;;
23826;SDS011;12094;50.822;4.376;2022-11-20T11:02:00;13.98;;;5.18;;
23826;SDS011;12094;50.822;4.376;2022-11-20T11:04:36;12.90;;;5.53;;
23826;SDS011;12094;50.822;4.376;2022-11-20T11:10:18;13.50;;;4.03;;
23826;SDS011;12094;50.822;4.376;2022-11-20T11:12:52;13.55;;;4.63;;
23826;SDS011;12094;50.822;4.376;2022-11-20T11:15:38;10.55;;;4.20;;
23826;SDS011;12094;50.822;4.376;2022-11-20T11:18:10;12.63;;;4.13;;
23826;SDS011;12094;50.822;4.376;2022-11-20T11:20:39;13.03;;;4.40;;
23826;SDS011;12094;50.822;4.376;2022-11-20T11:23:32;12.65;;;3.83;;
23826;SDS011;12094;50.822;4.376;2022-11-20T11:26:05;10.50;;;3.50;;
23826;SDS011;12094;50.822;4.376;2022-11-20T11:28:59;12.32;;;3.97;;
23826;SDS011;12094;50.822;4.376;2022-11-20T11:31:33;11.23;;;4.50;;
23826;SDS011;12094;50.822;4.376;2022-11-20T11:34:06;16.08;;;3.67;;
23826;SDS011;12094;50.822;4.376;2022-11-20T11:36:41;13.60;;;4.53;;
23826;SDS011;12094;50.822;4.376;2022-11-20T11:39:18;10.38;;;4.18;;
23826;SDS011;12094;50.822;4.376;2022-11-20T11:41:47;10.55;;;4.25;;
23826;SDS011;12094;50.822;4.376;2022-11-20T11:44:23;12.40;;;3.83;;
23826;SDS011;12094;50.822;4.376;2022-11-20T11:47:26;11.48;;;4.75;;
23826;SDS011;12094;50.822;4.376;2022-11-20T11:52:46;11.85;;;3.88;;
23826;SDS011;12094;50.822;4.376;2022-11-20T12:01:21;9.52;;;2.63;;
23826;SDS011;12094;50.822;4.376;2022-11-20T12:06:40;10.15;;;3.50;;
23826;SDS011;12094;50.822;4.376;2022-11-20T12:09:13;6.00;;;2.85;;
23826;SDS011;12094;50.822;4.376;2022-11-20T12:14:42;13.30;;;3.20;;
23826;SDS011;12094;50.822;4.376;2022-11-20T12:17:13;6.53;;;2.85;;
23826;SDS011;12094;50.822;4.376;2022-11-20T12:19:46;9.60;;;3.30;;
23826;SDS011;12094;50.822;4.376;2022-11-20T12:22:34;8.93;;;2.88;;
23826;SDS011;12094;50.822;4.376;2022-11-20T12:34:04;11.85;;;3.25;;
23826;SDS011;12094;50.822;4.376;2022-11-20T12:36:47;9.73;;;4.00;;
23826;SDS011;12094;50.822;4.376;2022-11-20T12:39:30;11.93;;;3.67;;
23826;SDS011;12094;50.822;4.376;2022-11-20T12:42:19;8.13;;;3.85;;
23826;SDS011;12094;50.822;4.376;2022-11-20T13:08:20;8.43;;;3.55;;
23826;SDS011;12094;50.822;4.376;2022-11-20T13:13:43;9.18;;;4.00;;
23826;SDS011;12094;50.822;4.376;2022-11-20T13:25:08;10.20;;;4.10;;
23826;SDS011;12094;50.822;4.376;2022-11-20T13:27:54;7.68;;;4.15;;
23826;SDS011;12094;50.822;4.376;2022-11-20T13:30:28;11.52;;;4.65;;
23826;SDS011;12094;50.822;4.376;2022-11-20T13:35:32;8.55;;;4.40;;
23826;SDS011;12094;50.822;4.376;2022-11-20T13:38:04;6.85;;;3.80;;
23826;SDS011;12094;50.822;4.376;2022-11-20T13:40:37;11.00;;;3.95;;
23826;SDS011;12094;50.822;4.376;2022-11-20T13:48:26;10.27;;;3.67;;
23826;SDS011;12094;50.822;4.376;2022-11-20T13:51:07;8.30;;;3.55;;
23826;SDS011;12094;50.822;4.376;2022-11-20T14:01:53;5.63;;;2.70;;
23826;SDS011;12094;50.822;4.376;2022-11-20T14:04:27;3.25;;;2.03;;
23826;SDS011;12094;50.822;4.376;2022-11-20T14:07:00;6.97;;;2.75;;
23826;SDS011;12094;50.822;4.376;2022-11-20T14:09:31;5.57;;;2.72;;
23826;SDS011;12094;50.822;4.376;2022-11-20T14:12:03;4.72;;;3.08;;
23826;SDS011;12094;50.822;4.376;2022-11-20T14:14:50;4.93;;;2.60;;
23826;SDS011;12094;50.822;4.376;2022-11-20T14:17:20;3.90;;;2.38;;
23826;SDS011;12094;50.822;4.376;2022-11-20T14:20:14;6.63;;;3.15;;
23826;SDS011;12094;50.822;4.376;2022-11-20T14:22:55;3.05;;;1.85;;
23826;SDS011;12094;50.822;4.376;2022-11-20T14:25:25;7.10;;;4.15;;
23826;SDS011;12094;50.822;4.376;2022-11-20T14:27:58;7.05;;;4.30;;
23826;SDS011;12094;50.822;4.376;2022-11-20T14:30:43;6.57;;;3.90;;
23826;SDS011;12094;50.822;4.376;2022-11-20T14:33:17;6.60;;;2.85;;
23826;SDS011;12094;50.822;4.376;2022-11-20T14:35:52;7.88;;;4.72;;
23826;SDS011;12094;50.822;4.376;2022-11-20T14:38:27;7.03;;;3.83;;
23826;SDS011;12094;50.822;4.376;2022-11-20T14:41:09;7.25;;;4.22;;
23826;SDS011;12094;50.822;4.376;2022-11-20T14:43:50;4.75;;;2.67;;
23826;SDS011;12094;50.822;4.376;2022-11-20T14:46:25;6.85;;;3.75;;
23826;SDS011;12094;50.822;4.376;2022-11-20T14:48:54;6.18;;;3.40;;
23826;SDS011;12094;50.822;4.376;2022-11-20T14:51:38;11.90;;;4.00;;
23826;SDS011;12094;50.822;4.376;2022-11-20T14:59:25;7.05;;;3.35;;
23826;SDS011;12094;50.822;4.376;2022-11-20T15:02:05;9.38;;;4.60;;
23826;SDS011;12094;50.822;4.376;2022-11-20T15:04:49;4.72;;;3.53;;
23826;SDS011;12094;50.822;4.376;2022-11-20T15:07:27;7.78;;;3.65;;
23826;SDS011;12094;50.822;4.376;2022-11-20T15:10:05;6.60;;;3.88;;
23826;SDS011;12094;50.822;4.376;2022-11-20T15:12:34;8.02;;;4.47;;
23826;SDS011;12094;50.822;4.376;2022-11-20T15:15:09;9.68;;;4.13;;
23826;SDS011;12094;50.822;4.376;2022-11-20T15:17:38;9.00;;;4.32;;
23826;SDS011;12094;50.822;4.376;2022-11-20T15:20:14;7.22;;;4.20;;
23826;SDS011;12094;50.822;4.376;2022-11-20T15:22:48;7.28;;;3.67;;
23826;SDS011;12094;50.822;4.376;2022-11-20T15:25:23;4.65;;;3.60;;
23826;SDS011;12094;50.822;4.376;2022-11-20T15:27:54;7.30;;;4.07;;
23826;SDS011;12094;50.822;4.376;2022-11-20T15:30:24;8.30;;;4.05;;
23826;SDS011;12094;50.822;4.376;2022-11-20T15:32:55;15.65;;;5.80;;
23826;SDS011;12094;50.822;4.376;2022-11-20T15:35:22;10.75;;;4.28;;
23826;SDS011;12094;50.822;4.376;2022-11-20T15:37:59;10.80;;;4.78;;
23826;SDS011;12094;50.822;4.376;2022-11-20T15:53:32;16.75;;;5.28;;
23826;SDS011;12094;50.822;4.376;2022-11-20T15:56:01;6.95;;;4.15;;
23826;SDS011;12094;50.822;4.376;2022-11-20T15:58:30;14.40;;;5.10;;
23826;SDS011;12094;50.822;4.376;2022-11-20T16:00:57;10.30;;;5.30;;
23826;SDS011;12094;50.822;4.376;2022-11-20T16:03:25;16.52;;;5.00;;
23826;SDS011;12094;50.822;4.376;2022-11-20T16:05:52;11.73;;;4.78;;
23826;SDS011;12094;50.822;4.376;2022-11-20T16:08:21;20.67;;;5.53;;
23826;SDS011;12094;50.822;4.376;2022-11-20T16:10:48;15.95;;;5.45;;
23826;SDS011;12094;50.822;4.376;2022-11-20T16:13:18;16.35;;;4.72;;
23826;SDS011;12094;50.822;4.376;2022-11-20T16:16:22;18.38;;;5.05;;
23826;SDS011;12094;50.822;4.376;2022-11-20T16:19:05;19.83;;;5.00;;
23826;SDS011;12094;50.822;4.376;2022-11-20T16:21:47;25.42;;;7.40;;
23826;SDS011;12094;50.822;4.376;2022-11-20T16:24:15;18.02;;;5.32;;
23826;SDS011;12094;50.822;4.376;2022-11-20T16:26:46;20.95;;;5.93;;
23826;SDS011;12094;50.822;4.376;2022-11-20T16:29:13;25.40;;;5.80;;
23826;SDS011;12094;50.822;4.376;2022-11-20T16:31:40;19.05;;;6.63;;
23826;SDS011;12094;50.822;4.376;2022-11-20T16:37:05;26.77;;;6.63;;
23826;SDS011;12094;50.822;4.376;2022-11-20T16:39:34;40.83;;;6.15;;
23826;SDS011;12094;50.822;4.376;2022-11-20T16:42:04;19.67;;;5.13;;
23826;SDS011;12094;50.822;4.376;2022-11-20T16:44:33;32.85;;;8.48;;
23826;SDS011;12094;50.822;4.376;2022-11-20T16:47:18;28.38;;;9.85;;
23826;SDS011;12094;50.822;4.376;2022-11-20T16:49:45;24.45;;;6.75;;
23826;SDS011;12094;50.822;4.376;2022-11-20T16:52:19;21.60;;;5.80;;
23826;SDS011;12094;50.822;4.376;2022-11-20T16:54:46;24.30;;;4.55;;
23826;SDS011;12094;50.822;4.376;2022-11-20T16:57:24;26.77;;;5.38;;
23826;SDS011;12094;50.822;4.376;2022-11-20T16:59:59;25.25;;;7.50;;
23826;SDS011;12094;50.822;4.376;2022-11-20T17:04:59;33.05;;;10.98;;
23826;SDS011;12094;50.822;4.376;2022-11-20T17:07:29;28.65;;;8.25;;
23826;SDS011;12094;50.822;4.376;2022-11-20T17:09:56;27.70;;;9.52;;
23826;SDS011;12094;50.822;4.376;2022-11-20T17:12:23;26.45;;;9.00;;
23826;SDS011;12094;50.822;4.376;2022-11-20T17:14:50;28.00;;;11.80;;
23826;SDS011;12094;50.822;4.376;2022-11-20T17:19:50;26.23;;;7.25;;
23826;SDS011;12094;50.822;4.376;2022-11-20T17:22:17;23.40;;;6.70;;
23826;SDS011;12094;50.822;4.376;2022-11-20T17:24:44;26.40;;;6.85;;
23826;SDS011;12094;50.822;4.376;2022-11-20T17:27:13;30.42;;;9.20;;
23826;SDS011;12094;50.822;4.376;2022-11-20T17:29:40;25.20;;;7.53;;
23826;SDS011;12094;50.822;4.376;2022-11-20T17:32:07;26.55;;;9.07;;
23826;SDS011;12094;50.822;4.376;2022-11-20T17:34:36;33.38;;;13.20;;
23826;SDS011;12094;50.822;4.376;2022-11-20T17:37:04;54.55;;;24.20;;
23826;SDS011;12094;50.822;4.376;2022-11-20T17:39:37;26.45;;;5.88;;
23826;SDS011;12094;50.822;4.376;2022-11-20T17:42:06;28.33;;;6.13;;
23826;SDS011;12094;50.822;4.376;2022-11-20T17:44:51;27.83;;;8.10;;
23826;SDS011;12094;50.822;4.376;2022-11-20T17:47:20;41.95;;;13.80;;
23826;SDS011;12094;50.822;4.376;2022-11-20T17:49:47;50.25;;;18.42;;
23826;SDS011;12094;50.822;4.376;2022-11-20T17:52:15;26.58;;;7.05;;
23826;SDS011;12094;50.822;4.376;2022-11-20T17:54:44;37.15;;;14.85;;
23826;SDS011;12094;50.822;4.376;2022-11-20T17:57:11;31.33;;;9.85;;
23826;SDS011;12094;50.822;4.376;2022-11-20T17:59:57;29.67;;;7.28;;
23826;SDS011;12094;50.822;4.376;2022-11-20T18:02:24;33.67;;;7.35;;
23826;SDS011;12094;50.822;4.376;2022-11-20T18:04:51;37.45;;;12.90;;
23826;SDS011;12094;50.822;4.376;2022-11-20T18:07:25;34.55;;;11.38;;
23826;SDS011;12094;50.822;4.376;2022-11-20T18:09:53;26.42;;;8.55;;
23826;SDS011;12094;50.822;4.376;2022-11-20T18:12:21;28.80;;;7.90;;
23826;SDS011;12094;50.822;4.376;2022-11-20T18:14:48;26.38;;;7.35;;